Time;durP1;ratioP1;P1;durP2;ratioP2;P2;SDS_P1;SDS_P2;PMS_P1;PMS_P2;Temp;Humidity;BMP_temperature;BMP_pressure;BME280_temperature;BME280_humidity;BME280_pressure;Samples;Min_cycle;Max_cycle;Signal;HPM_P1;HPM_P2
2022/03/14 00:04:09;;;;;;;4.93;2.40;;;;;;;;;;20916278;28;20509;-68
2022/03/14 00:14:11;;;;;;;3.15;2.10;;;;;;;;;;20914977;28;20049;-68
2022/03/14 00:24:13;;;;;;;5.38;2.70;;;;;;;;;;20914001;28;20513;-63
2022/03/14 00:34:16;;;;;;;4.60;2.80;;;;;;;;;;20913201;28;20067;-70
2022/03/14 00:44:18;;;;;;;5.07;2.72;;;;;;;;;;20912849;28;20131;-70
2022/03/14 00:54:20;;;;;;;5.28;2.60;;;;;;;;;;20912189;28;20151;-70
2022/03/14 01:04:22;;;;;;;5.82;2.83;;;;;;;;;;20912869;28;20532;-69
2022/03/14 01:14:25;;;;;;;7.93;3.22;;;;;;;;;;20909313;28;20053;-60
2022/03/14 01:24:27;;;;;;;4.10;2.00;;;;;;;;;;20911071;28;20132;-61
2022/03/14 01:34:29;;;;;;;2.95;2.17;;;;;;;;;;20910542;28;20056;-67
2022/03/14 01:44:31;;;;;;;3.78;1.92;;;;;;;;;;20908979;28;20412;-61
2022/03/14 01:54:33;;;;;;;5.30;2.05;;;;;;;;;;20921408;28;20132;-70
2022/03/14 02:04:36;;;;;;;3.92;2.00;;;;;;;;;;20923296;28;20088;-61
2022/03/14 02:14:41;;;;;;;2.47;1.40;;;;;;;;;;20923773;28;20052;-62
2022/03/14 02:24:43;;;;;;;;;;;;;;;;;;20923093;28;20052;-60
2022/03/14 02:34:46;;;;;;;2.30;1.30;;;;;;;;;;20925473;28;19920;-67
2022/03/14 02:44:51;;;;;;;5.17;1.40;;;;;;;;;;20925660;28;20118;-68
2022/03/14 02:55:00;;;;;;;2.10;1.27;;;;;;;;;;20922238;28;20413;-70
2022/03/14 03:05:05;;;;;;;3.05;1.30;;;;;;;;;;20920677;28;20408;-71
2022/03/14 03:15:12;;;;;;;2.80;1.60;;;;;;;;;;20918403;28;20052;-70
2022/03/14 03:25:18;;;;;;;3.70;1.48;;;;;;;;;;20917583;28;20055;-67
2022/03/14 03:35:20;;;;;;;2.33;1.50;;;;;;;;;;20916909;28;20103;-68
2022/03/14 03:45:22;;;;;;;3.55;1.60;;;;;;;;;;20917594;28;20080;-66
2022/03/14 03:55:25;;;;;;;3.17;1.60;;;;;;;;;;20916132;28;20072;-69
2022/03/14 04:05:30;;;;;;;3.38;1.42;;;;;;;;;;20915024;28;20052;-69
2022/03/14 04:15:39;;;;;;;2.03;1.33;;;;;;;;;;20914151;28;20045;-66
2022/03/14 04:25:43;;;;;;;5.40;1.83;;;;;;;;;;20913269;28;20108;-66
2022/03/14 04:35:45;;;;;;;3.13;1.63;;;;;;;;;;20913186;28;20377;-68
2022/03/14 04:45:49;;;;;;;3.40;1.55;;;;;;;;;;20912023;28;20052;-62
2022/03/14 04:55:51;;;;;;;3.92;1.70;;;;;;;;;;20911718;28;20049;-69
2022/03/14 05:05:53;;;;;;;2.80;1.30;;;;;;;;;;20912543;28;20141;-60
2022/03/14 05:15:56;;;;;;;8.02;3.97;;;;;;;;;;20911244;28;20117;-69
2022/03/14 05:25:59;;;;;;;4.07;1.30;;;;;;;;;;20910379;28;20057;-59
2022/03/14 05:36:02;;;;;;;6.65;1.50;;;;;;;;;;20919623;28;20093;-69
2022/03/14 05:46:04;;;;;;;2.67;1.30;;;;;;;;;;20926970;28;20052;-69
2022/03/14 05:56:07;;;;;;;6.25;1.83;;;;;;;;;;20927680;28;20127;-70
2022/03/14 06:06:09;;;;;;;2.40;1.40;;;;;;;;;;20924330;28;20056;-70
2022/03/14 06:16:13;;;;;;;3.88;1.40;;;;;;;;;;20924084;28;20158;-70
2022/03/14 06:26:15;;;;;;;4.32;1.70;;;;;;;;;;20922980;28;20057;-67
2022/03/14 06:36:17;;;;;;;2.85;1.58;;;;;;;;;;20922229;28;20045;-60
2022/03/14 06:46:19;;;;;;;2.38;1.20;;;;;;;;;;20920538;28;20052;-69
2022/03/14 06:56:21;;;;;;;3.08;1.20;;;;;;;;;;20922316;28;20099;-70
2022/03/14 07:06:23;;;;;;;4.80;1.30;;;;;;;;;;20920062;28;20052;-72
2022/03/14 07:16:25;;;;;;;4.53;1.63;;;;;;;;;;20920013;28;20098;-69
2022/03/14 07:26:26;;;;;;;5.15;2.00;;;;;;;;;;20918664;28;20078;-69
2022/03/14 07:36:29;;;;;;;5.80;1.95;;;;;;;;;;20917217;28;20167;-64
2022/03/14 07:46:31;;;;;;;4.25;1.70;;;;;;;;;;20917461;28;20045;-70
2022/03/14 07:56:32;;;;;;;3.13;1.73;;;;;;;;;;20916604;28;20107;-71
2022/03/14 08:06:41;;;;;;;2.65;1.80;;;;;;;;;;20919287;28;20390;-58
2022/03/14 08:16:43;;;;;;;4.53;1.70;;;;;;;;;;20926144;28;20092;-70
2022/03/14 08:26:44;;;;;;;4.55;2.13;;;;;;;;;;20914869;28;20060;-66
2022/03/14 08:36:46;;;;;;;4.18;2.45;;;;;;;;;;20914403;28;20175;-65
2022/03/14 08:46:48;;;;;;;2.63;1.45;;;;;;;;;;20913851;28;20048;-64
2022/03/14 08:56:50;;;;;;;2.33;1.30;;;;;;;;;;20913493;28;20056;-67
2022/03/14 09:06:51;;;;;;;3.63;1.33;;;;;;;;;;20915214;28;20114;-74
2022/03/14 09:16:53;;;;;;;4.05;1.45;;;;;;;;;;20930021;28;20053;-70
2022/03/14 09:26:59;;;;;;;3.03;1.70;;;;;;;;;;20928363;28;20497;-72
2022/03/14 09:37:00;;;;;;;;;;;;;;;;;;20927562;28;20041;-66
2022/03/14 09:47:02;;;;;;;1.50;1.15;;;;;;;;;;20926741;28;19920;-61
2022/03/14 09:57:04;;;;;;;2.60;1.60;;;;;;;;;;20927088;28;20439;-75
2022/03/14 10:07:06;;;;;;;1.58;0.90;;;;;;;;;;20926059;28;20049;-65
2022/03/14 10:17:09;;;;;;;3.05;1.13;;;;;;;;;;20923985;28;20048;-76
2022/03/14 10:27:12;;;;;;;2.33;1.08;;;;;;;;;;20922121;28;20149;-61
2022/03/14 10:37:14;;;;;;;1.88;1.08;;;;;;;;;;20918785;28;20041;-59
2022/03/14 10:47:19;;;;;;;5.47;0.90;;;;;;;;;;20916198;28;20049;-58
2022/03/14 10:57:26;;;;;;;2.03;1.00;;;;;;;;;;20912533;28;20052;-59
2022/03/14 11:07:32;;;;;;;2.35;0.98;;;;;;;;;;20918573;28;20469;-61
2022/03/14 11:17:34;;;;;;;;;;;;;;;;;;20913090;28;20049;-61
2022/03/14 11:27:36;;;;;;;2.13;1.33;;;;;;;;;;20915812;28;19934;-58
2022/03/14 11:37:42;;;;;;;1.98;0.90;;;;;;;;;;20911722;28;20135;-65
2022/03/14 11:47:44;;;;;;;1.73;0.85;;;;;;;;;;20917475;28;20048;-65
2022/03/14 11:57:49;;;;;;;1.77;1.20;;;;;;;;;;20916737;28;20394;-75
2022/03/14 12:07:51;;;;;;;1.90;1.37;;;;;;;;;;20920372;28;20409;-71
2022/03/14 12:17:53;;;;;;;3.58;2.33;;;;;;;;;;20915529;28;20053;-72
2022/03/14 12:27:55;;;;;;;3.50;1.77;;;;;;;;;;20920187;28;20052;-73
2022/03/14 12:37:58;;;;;;;3.75;1.52;;;;;;;;;;20914667;28;20045;-73
2022/03/14 12:48:07;;;;;;;4.43;2.10;;;;;;;;;;20914042;28;20057;-75
2022/03/14 12:58:09;;;;;;;3.42;1.60;;;;;;;;;;20912780;28;20041;-62
2022/03/14 13:08:11;;;;;;;2.90;1.50;;;;;;;;;;20912920;28;20049;-70
2022/03/14 13:18:20;;;;;;;5.72;1.73;;;;;;;;;;20913762;28;20049;-76
2022/03/14 13:28:29;;;;;;;4.10;1.58;;;;;;;;;;20913466;28;20051;-68
2022/03/14 13:38:43;;;;;;;4.53;2.08;;;;;;;;;;20911414;28;20044;-68
2022/03/14 13:48:52;;;;;;;2.30;1.65;;;;;;;;;;20910928;28;20131;-67
2022/03/14 13:58:55;;;;;;;5.65;2.10;;;;;;;;;;20921989;28;20052;-72
2022/03/14 14:08:57;;;;;;;2.88;1.65;;;;;;;;;;20926349;28;20044;-70
2022/03/14 14:19:08;;;;;;;3.50;1.80;;;;;;;;;;20926240;28;20068;-70
2022/03/14 14:29:10;;;;;;;2.83;1.85;;;;;;;;;;20923334;28;20049;-63
2022/03/14 14:39:12;;;;;;;3.72;2.33;;;;;;;;;;20922872;28;20042;-63
2022/03/14 14:49:16;;;;;;;4.70;2.45;;;;;;;;;;20921415;28;20045;-71
2022/03/14 14:59:24;;;;;;;8.65;3.33;;;;;;;;;;20920389;28;20045;-65
2022/03/14 15:09:26;;;;;;;5.47;2.92;;;;;;;;;;20915960;28;20063;-74
2022/03/14 15:19:30;;;;;;;7.75;3.13;;;;;;;;;;20915385;28;20467;-60
2022/03/14 15:29:33;;;;;;;22.17;6.45;;;;;;;;;;20912246;28;20067;-60
2022/03/14 15:39:35;;;;;;;33.00;7.28;;;;;;;;;;20908710;28;20045;-61
2022/03/14 15:49:37;;;;;;;37.28;6.32;;;;;;;;;;20902177;28;20361;-58
2022/03/14 15:59:40;;;;;;;40.20;6.55;;;;;;;;;;20901213;28;20057;-62
2022/03/14 16:09:42;;;;;;;38.55;5.70;;;;;;;;;;20904104;28;20477;-60
2022/03/14 16:19:47;;;;;;;40.45;6.70;;;;;;;;;;20901809;28;20057;-58
2022/03/14 16:29:48;;;;;;;;;;;;;;;;;;20900511;28;20080;-64
2022/03/14 16:39:53;;;;;;;34.83;6.07;;;;;;;;;;20900485;28;19924;-59
2022/03/14 16:49:55;;;;;;;40.80;7.55;;;;;;;;;;20901571;28;20060;-58
2022/03/14 16:59:57;;;;;;;48.97;8.43;;;;;;;;;;20896127;28;20057;-63
2022/03/14 17:09:59;;;;;;;41.95;6.93;;;;;;;;;;20896287;28;20408;-61
2022/03/14 17:20:03;;;;;;;39.08;7.78;;;;;;;;;;20900371;28;20090;-59
2022/03/14 17:30:05;;;;;;;39.60;6.03;;;;;;;;;;20913345;28;20548;-64
2022/03/14 17:40:09;;;;;;;46.88;7.95;;;;;;;;;;20925742;28;20052;-57
2022/03/14 17:50:12;;;;;;;51.38;8.63;;;;;;;;;;20923928;28;20111;-60
2022/03/14 18:00:13;;;;;;;59.95;10.05;;;;;;;;;;20924135;28;20049;-60
2022/03/14 18:10:18;;;;;;;58.75;10.43;;;;;;;;;;20922567;28;20129;-64
2022/03/14 18:20:19;;;;;;;61.87;8.67;;;;;;;;;;20922920;28;20045;-62
2022/03/14 18:30:21;;;;;;;77.50;11.52;;;;;;;;;;20928150;28;20056;-61
2022/03/14 18:40:23;;;;;;;72.00;12.45;;;;;;;;;;20924829;28;20126;-64
2022/03/14 18:50:27;;;;;;;75.18;12.20;;;;;;;;;;20921777;28;20416;-65
2022/03/14 19:00:29;;;;;;;79.57;11.63;;;;;;;;;;20922638;28;20057;-72
2022/03/14 19:10:33;;;;;;;95.32;14.10;;;;;;;;;;20921462;28;20577;-60
2022/03/14 19:20:34;;;;;;;79.97;13.53;;;;;;;;;;20919043;28;20501;-58
2022/03/14 19:30:36;;;;;;;86.47;13.68;;;;;;;;;;20914719;28;20135;-71
2022/03/14 19:40:38;;;;;;;89.13;16.23;;;;;;;;;;20915030;28;20057;-59
2022/03/14 19:50:40;;;;;;;81.35;11.73;;;;;;;;;;20914492;28;20051;-61
2022/03/14 20:00:45;;;;;;;91.80;14.63;;;;;;;;;;20917046;28;20041;-63
2022/03/14 20:10:48;;;;;;;78.15;12.80;;;;;;;;;;20932912;28;20045;-65
2022/03/14 20:20:52;;;;;;;82.57;14.07;;;;;;;;;;20916102;28;20049;-63
2022/03/14 20:30:54;;;;;;;80.05;15.57;;;;;;;;;;20914936;28;20060;-69
2022/03/14 20:40:57;;;;;;;86.47;14.07;;;;;;;;;;20918405;28;20041;-63
2022/03/14 20:50:59;;;;;;;96.15;15.85;;;;;;;;;;20913893;28;20053;-68
2022/03/14 21:01:01;;;;;;;41.65;9.02;;;;;;;;;;20916694;28;20387;-65
2022/03/14 21:11:02;;;;;;;24.88;5.93;;;;;;;;;;20912960;28;20136;-67
2022/03/14 21:21:04;;;;;;;26.40;6.10;;;;;;;;;;20911023;28;20084;-61
2022/03/14 21:31:07;;;;;;;23.15;7.10;;;;;;;;;;20910913;28;20481;-65
2022/03/14 21:41:10;;;;;;;30.42;6.35;;;;;;;;;;20910855;28;20041;-66
2022/03/14 21:51:13;;;;;;;63.65;24.60;;;;;;;;;;20910150;28;20052;-69
2022/03/14 22:01:15;;;;;;;27.67;6.28;;;;;;;;;;20909372;28;20052;-60
2022/03/14 22:11:18;;;;;;;31.50;6.93;;;;;;;;;;20909497;28;20178;-69
2022/03/14 22:21:20;;;;;;;51.20;7.25;;;;;;;;;;20922842;28;20059;-70
2022/03/14 22:31:21;;;;;;;55.35;9.80;;;;;;;;;;20923918;28;20053;-70
2022/03/14 22:41:23;;;;;;;85.45;14.15;;;;;;;;;;20922142;28;20081;-71
2022/03/14 22:51:26;;;;;;;78.05;12.13;;;;;;;;;;20922984;28;20080;-66
2022/03/14 23:01:29;;;;;;;89.65;12.73;;;;;;;;;;20921477;28;20041;-69
2022/03/14 23:11:33;;;;;;;87.78;13.65;;;;;;;;;;20921161;28;20442;-72
2022/03/14 23:21:40;;;;;;;88.93;15.10;;;;;;;;;;20919680;28;20053;-72
2022/03/14 23:31:42;;;;;;;103.40;14.43;;;;;;;;;;20916866;28;20084;-66
2022/03/14 23:41:44;;;;;;;123.15;15.45;;;;;;;;;;20918071;28;20059;-67
2022/03/14 23:51:46;;;;;;;115.60;18.60;;;;;;;;;;20918797;28;20049;-71
